Main page
METAR-TAF:

METAR-TAF

Airports :

Brenham Municipal Airport

Brenham, Texas, United States

latitude: 30-13-08N, longitude: 096-22-27W, elevation: 308 ft

Current weather observation

The report was made 22 minutes ago, at 02:55 UTC
Wind 7 mph from the North
Temperature 45°F
Humidity 93%
Pressure 30.42 in. Hg
Visibility: 10 miles
Broken clouds at a height of 1000 ft
Overcast at a height of 1300 ft

METAR: K11R 110255Z AUTO 01006KT 10SM BKN010 OVC013 07/06 A3042 RMK AO2 T00720060

Time: 21:17 (03:17 UTC)


TAF: missing

Weather observations and forecasts of more than 4000 airports (METAR and TAF reports).

The available stations are represented by yellow and red dots on the map.

Hover mouse over dot to see the name of the station.

Then click to see weather observations and forecasts.

To change the map : click on the green buttons with a black cross to zoom in, on the green button with a dash to zoom out, or on the green arrows for adjacent maps.


METAR-TAF: